ADDS METAR Data INFO
IDs: Format: Raw Decoded Include TAF

Data at: 0224 UTC 14 Dec 2017

KGUC 140156Z AUTO 00000KT 10SM CLR 00/M11 A3002 RMK AO2 SLP222 T00001106 FZRANO
KGUC 140056Z AUTO 00000KT 9SM CLR 01/M12 A3004 RMK AO2 SLP235 T00061117 FZRANO
KGUC 132356Z AUTO 00000KT 10SM CLR 02/M12 A3006 RMK AO2 SLP231 T00221122 10044 21056 56021 FZRANO
KGUC 132256Z AUTO 18003KT 10SM FEW090 03/M12 A3008 RMK AO2 SLP234 T00281122
KGUC 132156Z AUTO 27005KT 10SM CLR 04/M12 A3010 RMK AO2 SLP235 T00391122
KGUC 132056Z AUTO 26005KT 10SM CLR 02/M12 A3014 RMK AO2 SLP259 T00171122 56045 FZRANO
KGUC 131956Z AUTO 00000KT 10SM FEW095 01/M12 A3019 RMK AO2 SLP277 T00061122 FZRANO
KGUC 131856Z AUTO 00000KT 10SM SCT095 M03/M12 A3025 RMK AO2 SLP313 T10331117 FZRANO
KGUC 131756Z AUTO 00000KT 10SM SCT095 M06/M13 A3030 RMK AO2 SLP326 T10561128 11056 21167 58015 FZRANO
KGUC 131656Z AUTO 00000KT 10SM CLR M08/M14 A3035 RMK AO2 SLP357 T10831144 FZRANO
KGUC 131556Z AUTO 00000KT 10SM CLR M12/M16 A3036 RMK AO2 SLP361 T11171156 FZRANO
KGUC 131456Z AUTO 06003KT 10SM CLR M16/M17 A3036 RMK AO2 SLP369 T11561172 53004 FZRANO
KGUC 131356Z AUTO 00000KT 10SM CLR M14/M17 A3035 RMK AO2 SLP355 T11391172 FZRANO
KGUC 131256Z AUTO 15004KT 10SM CLR M16/M18 A3034 RMK AO2 SLP348 T11611183 FZRANO
KGUC 131156Z AUTO 00000KT 10SM CLR M14/M17 A3034 RMK AO2 SLP330 T11441167 11089 21156 58007 FZRANO
KGUC 131056Z AUTO 00000KT 10SM CLR M14/M17 A3036 RMK AO2 SLP319 T11441167 FZRANO
KGUC 130956Z AUTO 00000KT 10SM CLR M13/M16 A3037 RMK AO2 SLP320 T11331161 FZRANO
KGUC 130856Z AUTO 00000KT 10SM CLR M14/M17 A3037 RMK AO2 SLP328 T11391167 55004 FZRANO
KGUC 130756Z AUTO 13003KT 10SM CLR M13/M17 A3037 RMK AO2 SLP335 T11331167 FZRANO
KGUC 130656Z AUTO 00000KT 10SM CLR M13/M16 A3038 RMK AO2 SLP345 T11331161 FZRANO
KGUC 130556Z AUTO 00000KT 10SM CLR M09/M14 A3039 RMK AO2 SLP348 T10941139 10028 21106 400831167 55001 FZRANO
KGUC 130356Z AUTO 00000KT 10SM CLR M07/M14 A3039 RMK AO2 SLP372 T10721139 FZRANO
KGUC 130256Z AUTO 01003KT 10SM CLR M06/M13 A3039 RMK AO2 SLP381 T10561128 51002 FZRANO
KGUC 130156Z AUTO 00000KT 10SM CLR M04/M13 A3039 RMK AO2 SLP368 T10391133 FZRANO
KGUC 130056Z AUTO 01004KT 10SM CLR M01/M12 A3039 RMK AO2 SLP360 T10111117 FZRANO
KGUC 122356Z AUTO 00000KT 10SM CLR 03/M13 A3038 RMK AO2 SLP343 T00281133 10083 21028 56015
KGUC 122256Z AUTO 00000KT 10SM CLR 07/M13 A3039 RMK AO2 SLP326 T00721128
KGUC 122156Z AUTO 00000KT 10SM CLR 07/M13 A3041 RMK AO2 SLP329 T00721133
KGUC 122056Z AUTO 24009KT 10SM CLR 06/M13 A3044 RMK AO2 SLP347 T00561133 56043
KGUC 121956Z AUTO 00000KT 10SM CLR 03/M13 A3048 RMK AO2 SLP371 T00331133
KGUC 121856Z AUTO 00000KT 10SM CLR 01/M13 A3054 RMK AO2 SLP399 T00061128 FZRANO
KGUC 121756Z AUTO 00000KT 10SM CLR M03/M13 A3059 RMK AO2 SLP426 T10281133 11028 21167 58013 FZRANO
KGUC 121656Z AUTO 00000KT 10SM CLR M07/M14 A3063 RMK AO2 SLP453 T10721144 FZRANO
KGUC 121456Z AUTO 00000KT 10SM CLR M16/M18 A3064 RMK AO2 SLP471 T11561183 51004 FZRANO